createdAt,value
2017-09-22T00:00:58.808Z,85.40
2017-09-22T00:03:29.403Z,85.40
2017-09-22T00:06:00.736Z,85.50
2017-09-22T00:08:32.075Z,85.50
2017-09-22T00:11:02.495Z,85.30
2017-09-22T00:13:32.869Z,85.50
2017-09-22T00:16:03.211Z,85.20
2017-09-22T00:18:33.291Z,85.30
2017-09-22T00:21:03.894Z,85.00
2017-09-22T00:23:34.533Z,84.80
2017-09-22T00:26:04.840Z,84.60
2017-09-22T00:28:35.628Z,84.60
2017-09-22T00:31:06.684Z,84.60
2017-09-22T00:33:37.038Z,85.40
2017-09-22T00:36:07.469Z,85.40
2017-09-22T00:38:39.135Z,85.20
2017-09-22T00:41:09.987Z,85.10
2017-09-22T00:43:40.027Z,85.20
2017-09-22T00:46:10.604Z,87.10
2017-09-22T00:48:41.566Z,86.00
2017-09-22T00:51:12.131Z,85.80
2017-09-22T00:53:42.465Z,86.30
2017-09-22T00:56:12.989Z,86.00
2017-09-22T00:58:43.384Z,85.70
2017-09-22T01:01:14.442Z,85.90
2017-09-22T01:03:45.317Z,85.50
2017-09-22T01:06:16.506Z,85.80
2017-09-22T01:08:47.995Z,85.60
2017-09-22T01:11:19.927Z,85.80
2017-09-22T01:13:51.195Z,85.80
2017-09-22T01:16:21.572Z,85.80
2017-09-22T01:18:52.447Z,86.60
2017-09-22T01:21:23.355Z,86.40
2017-09-22T01:23:53.722Z,86.50
2017-09-22T01:26:23.976Z,86.30
2017-09-22T01:28:55.269Z,85.50
2017-09-22T01:31:25.843Z,85.50
2017-09-22T01:33:56.898Z,85.60
2017-09-22T01:36:27.251Z,85.70
2017-09-22T01:38:58.182Z,85.70
2017-09-22T01:41:29.039Z,85.60
2017-09-22T01:43:59.882Z,85.30
2017-09-22T01:46:30.246Z,85.20
2017-09-22T01:49:00.577Z,86.00
2017-09-22T01:51:30.961Z,86.40
2017-09-22T01:54:01.401Z,87.20
2017-09-22T01:56:31.903Z,87.50
2017-09-22T01:59:02.689Z,88.30
2017-09-22T02:01:33.220Z,87.50
2017-09-22T02:04:04.538Z,86.90
2017-09-22T02:06:35.618Z,87.20
2017-09-22T02:09:06.529Z,87.00
2017-09-22T02:11:36.663Z,86.80
2017-09-22T02:14:06.686Z,87.50
2017-09-22T02:16:37.123Z,88.30
2017-09-22T02:19:07.292Z,88.10
2017-09-22T02:21:37.832Z,87.60
2017-09-22T02:24:08.477Z,87.20
2017-09-22T02:26:38.858Z,88.70
2017-09-22T02:29:10.994Z,88.20
2017-09-22T02:31:41.147Z,87.60
2017-09-22T02:34:11.648Z,88.40
2017-09-22T02:36:42.297Z,87.60
2017-09-22T02:39:13.408Z,88.70
2017-09-22T02:41:43.971Z,88.70
2017-09-22T02:44:14.705Z,88.60
2017-09-22T02:46:45.982Z,89.30
2017-09-22T02:49:16.771Z,89.30
2017-09-22T02:51:48.928Z,89.50
2017-09-22T02:54:19.951Z,89.50
2017-09-22T02:56:50.507Z,90.20
2017-09-22T02:59:21.287Z,90.20
2017-09-22T03:01:52.689Z,90.10
2017-09-22T03:04:23.716Z,90.60
2017-09-22T03:06:55.015Z,90.50
2017-09-22T03:09:26.681Z,90.50
2017-09-22T03:11:58.283Z,90.70
2017-09-22T03:14:30.152Z,90.70
2017-09-22T03:17:01.194Z,90.30
2017-09-22T03:19:32.133Z,90.40
2017-09-22T03:22:04.027Z,90.50
2017-09-22T03:24:35.024Z,90.20
2017-09-22T03:27:06.175Z,89.80
2017-09-22T03:29:36.593Z,89.80
2017-09-22T03:32:07.369Z,89.80
2017-09-22T03:34:38.020Z,89.50
2017-09-22T03:37:10.619Z,89.10
2017-09-22T03:39:41.839Z,88.90
2017-09-22T03:42:13.531Z,88.90
2017-09-22T03:44:44.247Z,88.80
2017-09-22T03:47:15.271Z,88.80
2017-09-22T03:49:46.508Z,88.80
2017-09-22T03:52:16.837Z,88.40
2017-09-22T03:54:47.176Z,88.40
2017-09-22T03:57:18.630Z,88.60
2017-09-22T03:59:49.162Z,88.60
2017-09-22T04:02:20.060Z,88.60
2017-09-22T04:04:51.309Z,88.30
2017-09-22T04:07:21.839Z,88.30
2017-09-22T04:09:52.963Z,88.50
2017-09-22T04:12:23.471Z,88.40
2017-09-22T04:17:29.522Z,88.30
2017-09-22T04:20:00.421Z,88.60
2017-09-22T04:22:31.890Z,90.00
2017-09-22T04:25:02.195Z,89.90
2017-09-22T04:27:32.565Z,89.60
2017-09-22T04:30:02.704Z,89.70
2017-09-22T04:32:33.474Z,90.00
2017-09-22T04:35:12.665Z,90.10
2017-09-22T04:37:47.704Z,90.20
2017-09-22T04:40:25.581Z,90.80
2017-09-22T04:43:00.634Z,91.30
2017-09-22T04:45:32.799Z,90.60
2017-09-22T04:48:04.935Z,92.00
2017-09-22T04:50:36.042Z,92.00
2017-09-22T04:53:06.171Z,92.00
2017-09-22T04:55:37.563Z,91.60
2017-09-22T04:58:08.458Z,91.70
2017-09-22T05:00:39.109Z,91.70
2017-09-22T05:03:10.285Z,92.00
2017-09-22T05:05:42.051Z,92.60
2017-09-22T05:08:13.580Z,92.40
2017-09-22T05:10:45.585Z,92.40
2017-09-22T05:13:16.671Z,91.70
2017-09-22T05:15:47.216Z,91.70
2017-09-22T05:18:17.799Z,91.50
2017-09-22T05:20:49.541Z,91.70
2017-09-22T05:23:21.431Z,92.20
2017-09-22T05:25:52.458Z,92.40
2017-09-22T05:28:23.172Z,92.20
2017-09-22T05:30:54.243Z,91.90
2017-09-22T05:33:24.721Z,91.90
2017-09-22T05:35:56.175Z,92.40
2017-09-22T05:38:26.970Z,92.40
2017-09-22T05:40:57.451Z,92.00
2017-09-22T05:43:28.624Z,91.60
2017-09-22T05:45:59.434Z,91.60
2017-09-22T05:48:29.711Z,91.50
2017-09-22T05:50:59.924Z,91.70
2017-09-22T05:53:30.302Z,91.90
2017-09-22T05:56:00.432Z,92.00
2017-09-22T05:58:30.738Z,91.50
2017-09-22T06:01:00.970Z,91.70
2017-09-22T06:03:31.077Z,91.70
2017-09-22T06:06:02.098Z,91.30
2017-09-22T06:08:32.213Z,91.30
2017-09-22T06:11:02.655Z,91.00
2017-09-22T06:13:32.893Z,91.00
2017-09-22T06:16:05.205Z,91.10
2017-09-22T06:18:35.519Z,91.00
2017-09-22T06:21:05.699Z,91.30
2017-09-22T06:23:36.577Z,91.10
2017-09-22T06:26:07.115Z,91.60
2017-09-22T06:28:37.674Z,91.30
2017-09-22T06:31:08.599Z,91.10
2017-09-22T06:33:38.791Z,91.20
2017-09-22T06:36:09.315Z,91.10
2017-09-22T06:38:39.409Z,91.40
2017-09-22T06:41:10.454Z,91.60
2017-09-22T06:43:41.313Z,91.50
2017-09-22T06:46:11.402Z,91.50
2017-09-22T06:48:42.547Z,91.20
2017-09-22T06:51:13.428Z,91.50
2017-09-22T06:53:43.969Z,91.50
2017-09-22T06:56:14.647Z,91.10
2017-09-22T06:58:46.107Z,91.00
2017-09-22T07:01:16.416Z,91.00
2017-09-22T07:03:47.385Z,91.20
2017-09-22T07:06:17.845Z,91.20
2017-09-22T07:08:48.011Z,91.10
2017-09-22T07:11:18.330Z,91.30
2017-09-22T07:13:49.714Z,90.50
2017-09-22T07:16:20.140Z,90.50
2017-09-22T07:18:51.358Z,90.60
2017-09-22T07:21:22.645Z,90.20
2017-09-22T07:23:52.847Z,90.20
2017-09-22T07:26:25.453Z,90.20
2017-09-22T07:28:55.632Z,90.20
2017-09-22T07:31:26.944Z,90.10
2017-09-22T07:33:58.245Z,90.10
2017-09-22T07:36:28.461Z,90.30
2017-09-22T07:38:58.770Z,90.30
2017-09-22T07:41:28.795Z,90.40
2017-09-22T07:43:59.325Z,90.30
2017-09-22T07:46:29.486Z,90.10
2017-09-22T07:48:59.573Z,90.30
2017-09-22T07:51:29.882Z,90.10
2017-09-22T07:54:00.852Z,89.30
2017-09-22T07:56:31.072Z,89.70
2017-09-22T07:59:01.545Z,88.00
2017-09-22T08:01:31.767Z,88.50
2017-09-22T08:04:02.759Z,89.10
2017-09-22T08:06:35.162Z,89.10
2017-09-22T08:09:05.717Z,88.90
2017-09-22T08:11:36.657Z,89.00
2017-09-22T08:14:06.993Z,89.60
2017-09-22T08:16:38.527Z,89.50
2017-09-22T08:19:11.683Z,89.20
2017-09-22T08:21:43.667Z,89.80
2017-09-22T08:24:15.702Z,89.30
2017-09-22T08:26:48.673Z,90.00
2017-09-22T08:29:22.183Z,89.80
2017-09-22T08:31:53.217Z,90.50
2017-09-22T08:34:23.455Z,90.40
2017-09-22T08:36:54.092Z,87.90
2017-09-22T08:39:24.391Z,88.20
2017-09-22T08:41:54.445Z,86.60
2017-09-22T08:44:24.771Z,84.00
2017-09-22T08:46:54.790Z,90.00
2017-09-22T08:49:24.906Z,89.00
2017-09-22T08:51:55.079Z,87.90
2017-09-22T08:54:28.320Z,85.30
2017-09-22T08:56:59.507Z,82.70
2017-09-22T08:59:29.923Z,82.70
2017-09-22T09:02:00.337Z,77.30
2017-09-22T09:04:31.259Z,71.60
2017-09-22T09:07:01.360Z,71.50
2017-09-22T09:09:32.206Z,73.60
2017-09-22T09:12:02.470Z,75.70
2017-09-22T09:14:32.615Z,71.10
2017-09-22T09:17:02.737Z,65.80
2017-09-22T09:19:33.275Z,61.50
2017-09-22T09:22:03.382Z,63.90
2017-09-22T09:24:33.888Z,64.20
2017-09-22T09:27:03.993Z,68.50
2017-09-22T09:29:34.878Z,68.70
2017-09-22T09:32:05.270Z,68.60
2017-09-22T09:34:35.586Z,66.70
2017-09-22T09:37:05.687Z,69.30
2017-09-22T09:39:36.630Z,60.50
2017-09-22T09:42:07.474Z,60.90
2017-09-22T09:44:37.470Z,60.80
2017-09-22T09:47:08.233Z,58.90
2017-09-22T09:49:38.335Z,62.50
2017-09-22T09:52:08.664Z,59.70
2017-09-22T09:54:39.484Z,61.90
2017-09-22T09:57:10.533Z,61.70
2017-09-22T09:59:41.350Z,61.30
2017-09-22T10:02:11.518Z,61.20
2017-09-22T10:04:41.753Z,62.00
2017-09-22T10:07:18.945Z,59.50
2017-09-22T10:09:51.320Z,60.80
2017-09-22T10:12:21.810Z,60.80
2017-09-22T10:14:52.302Z,53.80
2017-09-22T10:17:22.641Z,55.30
2017-09-22T10:19:52.776Z,53.90
2017-09-22T10:22:23.841Z,58.40
2017-09-22T10:24:53.865Z,58.30
2017-09-22T10:27:25.045Z,53.40
2017-09-22T10:29:55.253Z,53.30
2017-09-22T10:32:25.776Z,51.70
2017-09-22T10:34:55.958Z,54.90
2017-09-22T10:37:26.181Z,50.60
2017-09-22T10:39:57.164Z,52.10
2017-09-22T10:42:27.622Z,51.80
2017-09-22T10:44:57.694Z,48.70
2017-09-22T10:47:27.844Z,50.00
2017-09-22T10:49:57.961Z,51.40
2017-09-22T10:52:28.357Z,47.70
2017-09-22T10:54:58.817Z,45.90
2017-09-22T10:57:30.170Z,49.20
2017-09-22T11:00:00.525Z,49.20
2017-09-22T11:02:30.636Z,48.90
2017-09-22T11:05:00.801Z,48.60
2017-09-22T11:07:30.989Z,48.90
2017-09-22T11:10:01.162Z,49.10
2017-09-22T11:12:32.422Z,50.30
2017-09-22T11:15:02.465Z,50.40
2017-09-22T11:17:33.454Z,49.20
2017-09-22T11:20:03.750Z,49.20
2017-09-22T11:22:34.242Z,50.90
2017-09-22T11:25:05.239Z,50.60
2017-09-22T11:27:35.348Z,50.50
2017-09-22T11:30:09.497Z,53.00
2017-09-22T11:32:40.208Z,50.50
2017-09-22T11:35:10.448Z,51.20
2017-09-22T11:37:40.830Z,50.60
2017-09-22T11:40:11.107Z,50.30
2017-09-22T11:42:41.277Z,46.40
2017-09-22T11:45:11.615Z,46.90
2017-09-22T11:47:41.694Z,50.10
2017-09-22T11:50:12.529Z,52.30
2017-09-22T11:52:43.444Z,53.90
2017-09-22T11:55:14.121Z,53.90
2017-09-22T11:57:44.322Z,50.90
2017-09-22T12:00:15.574Z,52.90
2017-09-22T12:02:52.885Z,52.00
2017-09-22T12:05:23.859Z,52.00
2017-09-22T12:07:54.030Z,53.10
2017-09-22T12:10:24.172Z,53.90
2017-09-22T12:12:54.611Z,53.70
2017-09-22T12:15:25.235Z,49.00
2017-09-22T12:17:55.775Z,51.30
2017-09-22T12:20:35.547Z,47.10
2017-09-22T12:23:07.413Z,44.60
2017-09-22T12:25:37.810Z,44.70
2017-09-22T12:28:07.913Z,48.10
2017-09-22T12:30:37.969Z,48.00
2017-09-22T12:33:08.378Z,47.70
2017-09-22T12:35:38.718Z,47.60
2017-09-22T12:38:08.878Z,47.80
2017-09-22T12:40:38.945Z,50.40
2017-09-22T12:43:09.096Z,51.40
2017-09-22T12:45:39.248Z,52.10
2017-09-22T12:48:09.478Z,52.60
2017-09-22T12:50:39.831Z,51.90
2017-09-22T12:53:09.877Z,51.20
2017-09-22T12:55:40.273Z,51.80
2017-09-22T12:58:10.518Z,52.70
2017-09-22T13:00:48.667Z,52.40
2017-09-22T13:03:18.885Z,50.70
2017-09-22T13:05:49.574Z,49.90
2017-09-22T13:08:19.775Z,51.20
2017-09-22T13:10:50.012Z,52.50
2017-09-22T13:13:20.426Z,51.80
2017-09-22T13:15:51.006Z,52.60
2017-09-22T13:18:21.866Z,51.00
2017-09-22T13:20:52.006Z,52.60
2017-09-22T13:23:22.267Z,54.00
2017-09-22T13:25:53.266Z,54.40
2017-09-22T13:28:23.677Z,54.30
2017-09-22T13:30:54.005Z,54.40
2017-09-22T13:33:24.190Z,54.60
2017-09-22T13:35:55.189Z,55.80
2017-09-22T13:38:25.253Z,55.80
2017-09-22T13:40:55.482Z,55.60
2017-09-22T13:43:25.793Z,55.50
2017-09-22T13:45:59.387Z,57.70
2017-09-22T13:48:29.880Z,57.10
2017-09-22T13:51:00.458Z,57.10
2017-09-22T13:53:30.646Z,57.40
2017-09-22T13:56:01.057Z,58.40
2017-09-22T13:58:31.330Z,59.00
2017-09-22T14:01:02.450Z,60.40
2017-09-22T14:03:33.296Z,62.00
2017-09-22T14:06:04.087Z,59.80
2017-09-22T14:08:34.453Z,59.80
2017-09-22T14:11:04.984Z,60.10
2017-09-22T14:13:36.010Z,59.80
2017-09-22T14:16:06.966Z,61.10
2017-09-22T14:18:37.890Z,61.10
2017-09-22T14:21:08.055Z,61.60
2017-09-22T14:23:38.645Z,61.70
2017-09-22T14:26:09.522Z,61.30
2017-09-22T14:28:40.160Z,61.20
2017-09-22T14:31:10.700Z,62.20
2017-09-22T14:33:40.882Z,62.40
2017-09-22T14:36:11.148Z,62.70
2017-09-22T14:38:41.258Z,62.70
2017-09-22T14:41:11.543Z,62.70
2017-09-22T14:43:41.919Z,63.20
2017-09-22T14:46:12.145Z,63.70
2017-09-22T14:48:43.206Z,63.40
2017-09-22T14:51:13.566Z,65.90
2017-09-22T14:53:43.954Z,65.10
2017-09-22T14:56:15.129Z,63.50
2017-09-22T14:58:45.447Z,63.40
2017-09-22T15:01:16.474Z,64.40
2017-09-22T15:03:47.470Z,62.80
2017-09-22T15:06:17.603Z,62.70
2017-09-22T15:08:48.065Z,64.30
2017-09-22T15:11:18.912Z,64.50
2017-09-22T15:13:49.054Z,64.50
2017-09-22T15:16:19.158Z,64.90
2017-09-22T15:18:50.087Z,65.10
2017-09-22T15:21:21.453Z,65.90
2017-09-22T15:23:51.674Z,65.90
2017-09-22T15:26:22.180Z,65.20
2017-09-22T15:28:52.234Z,65.30
2017-09-22T15:31:22.355Z,65.70
2017-09-22T15:33:52.769Z,65.90
2017-09-22T15:36:22.949Z,66.10
2017-09-22T15:38:53.855Z,65.70
2017-09-22T15:41:23.982Z,65.70
2017-09-22T15:43:54.844Z,66.20
2017-09-22T15:46:25.156Z,66.20
2017-09-22T15:48:55.305Z,66.20
2017-09-22T15:51:26.538Z,66.00
2017-09-22T15:53:57.355Z,65.70
2017-09-22T15:56:27.470Z,65.70
2017-09-22T15:58:57.556Z,66.50
2017-09-22T16:01:28.478Z,67.70
2017-09-22T16:03:59.456Z,67.80
2017-09-22T16:06:29.690Z,67.80
2017-09-22T16:08:59.758Z,67.80
2017-09-22T16:11:29.886Z,68.60
2017-09-22T16:14:00.187Z,68.30
2017-09-22T16:16:31.334Z,67.60
2017-09-22T16:19:01.494Z,67.60
2017-09-22T16:21:31.550Z,67.80
2017-09-22T16:24:02.382Z,68.20
2017-09-22T16:26:32.480Z,68.20
2017-09-22T16:29:02.985Z,68.00
2017-09-22T16:31:33.899Z,68.50
2017-09-22T16:34:04.043Z,68.40
2017-09-22T16:36:34.510Z,67.80
2017-09-22T16:39:05.486Z,69.00
2017-09-22T16:41:36.838Z,69.40
2017-09-22T16:44:06.942Z,69.40
2017-09-22T16:46:37.839Z,69.70
2017-09-22T16:49:08.169Z,69.50
2017-09-22T16:51:38.775Z,70.10
2017-09-22T16:54:08.929Z,69.80
2017-09-22T16:56:39.839Z,71.00
2017-09-22T16:59:09.910Z,71.00
2017-09-22T17:01:41.353Z,70.80
2017-09-22T17:04:12.392Z,70.70
2017-09-22T17:06:43.213Z,70.90
2017-09-22T17:09:14.596Z,70.80
2017-09-22T17:11:46.386Z,71.00
2017-09-22T17:14:17.812Z,71.00
2017-09-22T17:16:47.942Z,71.00
2017-09-22T17:19:18.617Z,70.90
2017-09-22T17:21:49.310Z,70.80
2017-09-22T17:24:20.166Z,71.20
2017-09-22T17:26:50.430Z,71.30
2017-09-22T17:29:21.375Z,71.80
2017-09-22T17:31:51.519Z,71.80
2017-09-22T17:34:21.951Z,71.80
2017-09-22T17:36:52.088Z,72.20
2017-09-22T17:39:22.346Z,72.40
2017-09-22T17:41:52.467Z,72.00
2017-09-22T17:44:23.788Z,71.90
2017-09-22T17:46:54.034Z,71.90
2017-09-22T17:49:24.301Z,72.20
2017-09-22T17:51:54.660Z,72.70
2017-09-22T17:54:25.031Z,73.20
2017-09-22T17:56:55.194Z,73.60
2017-09-22T17:59:25.458Z,73.90
2017-09-22T18:01:56.829Z,73.90
2017-09-22T18:04:27.536Z,73.90
2017-09-22T18:06:58.407Z,74.20
2017-09-22T18:09:28.672Z,74.20
2017-09-22T18:11:59.932Z,74.40
2017-09-22T18:14:30.870Z,74.80
2017-09-22T18:17:02.083Z,75.40
2017-09-22T18:19:32.582Z,75.40
2017-09-22T18:22:05.563Z,75.20
2017-09-22T18:24:35.727Z,75.50
2017-09-22T18:27:06.137Z,75.40
2017-09-22T18:29:36.668Z,75.70
2017-09-22T18:32:06.996Z,75.60
2017-09-22T18:34:37.113Z,76.10
2017-09-22T18:37:09.203Z,76.60
2017-09-22T18:39:40.319Z,76.50
2017-09-22T18:42:10.671Z,76.80
2017-09-22T18:44:41.097Z,76.90
2017-09-22T18:47:11.325Z,77.10
2017-09-22T18:49:41.469Z,76.80
2017-09-22T18:52:12.902Z,76.60
2017-09-22T18:54:43.155Z,76.70
2017-09-22T18:57:14.671Z,77.10
2017-09-22T18:59:44.974Z,77.20
2017-09-22T19:02:16.088Z,77.50
2017-09-22T19:04:46.206Z,77.30
2017-09-22T19:07:16.925Z,77.50
2017-09-22T19:09:47.047Z,77.80
2017-09-22T19:12:17.971Z,78.30
2017-09-22T19:14:49.973Z,79.10
2017-09-22T19:17:20.236Z,79.10
2017-09-22T19:19:52.883Z,78.40
2017-09-22T19:22:24.315Z,78.60
2017-09-22T19:24:54.613Z,78.60
2017-09-22T19:27:25.248Z,78.60
2017-09-22T19:29:55.764Z,78.50
2017-09-22T19:32:27.408Z,78.40
2017-09-22T19:34:57.546Z,78.40
2017-09-22T19:37:29.138Z,78.00
2017-09-22T19:40:02.171Z,78.00
2017-09-22T19:42:32.398Z,78.20
2017-09-22T19:45:03.398Z,79.10
2017-09-22T19:47:33.797Z,79.10
2017-09-22T19:50:04.298Z,79.50
2017-09-22T19:52:36.126Z,79.60
2017-09-22T19:55:06.880Z,79.50
2017-09-22T19:57:37.136Z,81.50
2017-09-22T20:00:07.326Z,84.10
2017-09-22T20:02:37.460Z,84.20
2017-09-22T20:05:07.829Z,84.60
2017-09-22T20:07:38.420Z,83.40
2017-09-22T20:10:08.613Z,82.60
2017-09-22T20:12:39.798Z,82.10
2017-09-22T20:15:11.812Z,81.60
2017-09-22T20:17:42.031Z,81.60
2017-09-22T20:20:12.461Z,81.30
2017-09-22T20:22:42.611Z,81.40
2017-09-22T20:25:13.462Z,82.70
2017-09-22T20:27:43.750Z,82.70
2017-09-22T20:30:14.612Z,82.50
2017-09-22T20:32:44.759Z,82.40
2017-09-22T20:35:15.506Z,81.70
2017-09-22T20:37:45.585Z,82.10
2017-09-22T20:40:15.765Z,81.80
2017-09-22T20:42:46.090Z,82.90
2017-09-22T20:45:16.545Z,82.80
2017-09-22T20:47:46.614Z,81.50
2017-09-22T20:50:17.333Z,83.10
2017-09-22T20:52:47.657Z,82.80
2017-09-22T20:55:17.740Z,82.90
2017-09-22T20:57:51.831Z,83.20
2017-09-22T21:00:22.594Z,83.60
2017-09-22T21:02:53.438Z,83.10
2017-09-22T21:05:23.915Z,82.60
2017-09-22T21:07:54.140Z,82.40
2017-09-22T21:10:24.499Z,82.60
2017-09-22T21:12:55.336Z,84.50
2017-09-22T21:15:25.805Z,84.40
2017-09-22T21:17:56.130Z,84.20
2017-09-22T21:20:26.960Z,83.90
2017-09-22T21:22:57.370Z,83.80
2017-09-22T21:25:27.474Z,84.10
2017-09-22T21:27:57.526Z,83.40
2017-09-22T21:30:27.705Z,83.50
2017-09-22T21:32:58.606Z,83.60
2017-09-22T21:35:28.653Z,83.70
2017-09-22T21:37:59.610Z,84.70
2017-09-22T21:40:29.710Z,84.60
2017-09-22T21:43:00.628Z,84.70
2017-09-22T21:45:31.178Z,84.70
2017-09-22T21:48:02.399Z,84.80
2017-09-22T21:50:32.652Z,84.70
2017-09-22T21:53:03.086Z,84.80
2017-09-22T21:55:33.728Z,85.20
2017-09-22T21:58:04.771Z,85.70
2017-09-22T22:00:35.363Z,85.70
2017-09-22T22:03:09.770Z,85.00
2017-09-22T22:05:40.132Z,84.40
2017-09-22T22:08:10.316Z,84.70
2017-09-22T22:10:41.804Z,85.20
2017-09-22T22:13:11.858Z,85.10
2017-09-22T22:15:41.929Z,85.30
2017-09-22T22:18:12.746Z,86.30
2017-09-22T22:20:42.845Z,86.30
2017-09-22T22:23:13.073Z,86.30
2017-09-22T22:25:44.425Z,86.70
2017-09-22T22:28:14.732Z,86.80
2017-09-22T22:30:45.658Z,85.90
2017-09-22T22:33:15.741Z,85.90
2017-09-22T22:35:45.775Z,85.90
2017-09-22T22:38:16.330Z,85.70
2017-09-22T22:40:47.591Z,86.40
2017-09-22T22:43:18.638Z,86.00
2017-09-22T22:45:49.414Z,86.00
2017-09-22T22:48:19.951Z,85.90
2017-09-22T22:50:50.126Z,85.50
2017-09-22T22:53:20.214Z,85.50
2017-09-22T22:55:50.185Z,85.20
2017-09-22T22:58:21.130Z,85.20
2017-09-22T23:00:52.117Z,85.00
2017-09-22T23:03:22.130Z,85.00
2017-09-22T23:05:52.289Z,84.90
2017-09-22T23:08:22.997Z,84.70
2017-09-22T23:10:53.774Z,85.00
2017-09-22T23:13:24.145Z,85.00
2017-09-22T23:15:54.920Z,86.00
2017-09-22T23:18:24.899Z,85.90
2017-09-22T23:20:54.881Z,86.30
2017-09-22T23:23:25.142Z,86.50
2017-09-22T23:25:55.138Z,88.50
2017-09-22T23:28:25.214Z,89.30
2017-09-22T23:30:56.378Z,87.90
2017-09-22T23:33:26.426Z,87.90
2017-09-22T23:35:56.842Z,87.80
2017-09-22T23:38:27.021Z,87.70
2017-09-22T23:40:58.166Z,88.20
2017-09-22T23:43:28.301Z,88.20
2017-09-22T23:45:58.623Z,88.50
2017-09-22T23:48:28.588Z,88.90
2017-09-22T23:50:58.807Z,90.40
2017-09-22T23:53:30.016Z,89.30
2017-09-22T23:56:00.425Z,89.30
2017-09-22T23:58:30.701Z,89.30
